Terminal Aerodrome Forecast
Issued by NWS

Home | Current Version | Previous Version | Text Only | Print | Product List | Glossary On
Versions: 1 2 3 4 5 6 7 8 9 10 11 12 13 14 15 16 17 18 19
000
FTUS44 KLZK 260300 AAA
TAFBPK
TAF AMD
KBPK 260352Z 2604/2624 16008G16KT 5SM -RA VCTS SCT007 OVC015CB
      TEMPO 2604/2607 3SM TSRA BR OVC007CB
     FM260700 15008KT 5SM -RA BR OVC015
     FM261400 20008KT P6SM BKN025
     FM261800 24007KT P6SM SCT250=

USA.gov is the U.S. government's official web portal to all federal, state and local government web resources and services.